Time;durP1;ratioP1;P1;durP2;ratioP2;P2;SDS_P1;SDS_P2;PMS_P1;PMS_P2;Temp;Humidity;BMP_temperature;BMP_pressure;BME280_temperature;BME280_humidity;BME280_pressure;Samples;Min_cycle;Max_cycle;Signal;HPM_P1;HPM_P2
2023/10/16 00:01:38;;;;;;;1.70;0.85;;;;;;;;;;10373827;28;20084;-60
2023/10/16 00:06:41;;;;;;;0.95;0.55;;;;;;;;;;10363794;28;20025;-60
2023/10/16 00:11:43;;;;;;;2.25;0.93;;;;;;;;;;10379951;28;20046;-61
2023/10/16 00:16:45;;;;;;;5.63;0.90;;;;;;;;;;10380777;28;20034;-59
2023/10/16 00:21:47;;;;;;;1.05;0.70;;;;;;;;;;10378543;28;20033;-60
2023/10/16 00:26:51;;;;;;;3.30;0.70;;;;;;;;;;10379629;28;20022;-63
2023/10/16 00:31:58;;;;;;;6.93;0.73;;;;;;;;;;10379479;28;20022;-60
2023/10/16 00:37:01;;;;;;;4.68;0.85;;;;;;;;;;10379256;28;20041;-59
2023/10/16 00:42:08;;;;;;;2.05;0.70;;;;;;;;;;10379684;28;20029;-64
2023/10/16 00:47:11;;;;;;;4.38;0.60;;;;;;;;;;10379472;28;20041;-60
2023/10/16 00:52:14;;;;;;;0.52;0.52;;;;;;;;;;10361529;28;20033;-63
2023/10/16 00:57:17;;;;;;;2.95;0.70;;;;;;;;;;10378363;28;20075;-61
2023/10/16 01:02:26;;;;;;;1.02;0.47;;;;;;;;;;10378298;28;20430;-62
2023/10/16 01:07:27;;;;;;;3.45;0.70;;;;;;;;;;10378080;28;20029;-62
2023/10/16 01:12:29;;;;;;;1.00;0.60;;;;;;;;;;10377850;28;20478;-61
2023/10/16 01:17:32;;;;;;;1.10;0.63;;;;;;;;;;10360333;28;20022;-62
2023/10/16 01:22:34;;;;;;;1.48;0.70;;;;;;;;;;10378051;28;20038;-61
2023/10/16 01:27:40;;;;;;;0.57;0.50;;;;;;;;;;10377945;28;20045;-60
2023/10/16 01:32:42;;;;;;;1.35;0.63;;;;;;;;;;10376883;28;20030;-61
2023/10/16 01:37:46;;;;;;;2.30;0.75;;;;;;;;;;10377048;28;20030;-59
2023/10/16 01:42:55;;;;;;;0.60;0.60;;;;;;;;;;10376681;28;20053;-58
2023/10/16 01:47:57;;;;;;;1.85;0.65;;;;;;;;;;10377895;28;20029;-59
2023/10/16 01:52:59;;;;;;;3.35;0.70;;;;;;;;;;10376368;28;20022;-59
2023/10/16 01:58:03;;;;;;;2.25;0.85;;;;;;;;;;10376937;28;20057;-62
2023/10/16 02:03:08;;;;;;;1.30;0.75;;;;;;;;;;10376650;28;20025;-60
2023/10/16 02:08:12;;;;;;;0.50;0.50;;;;;;;;;;10375791;28;20092;-63
2023/10/16 02:13:15;;;;;;;1.05;0.50;;;;;;;;;;10375467;28;20053;-58
2023/10/16 02:18:22;;;;;;;1.58;0.70;;;;;;;;;;10375632;28;20112;-59
2023/10/16 02:23:29;;;;;;;4.22;0.60;;;;;;;;;;10375179;28;20140;-60
2023/10/16 02:28:31;;;;;;;0.50;0.50;;;;;;;;;;10374545;28;20030;-62
2023/10/16 02:33:35;;;;;;;1.05;0.65;;;;;;;;;;10374860;28;20084;-59
2023/10/16 02:38:36;;;;;;;2.60;0.70;;;;;;;;;;10375342;28;20069;-62
2023/10/16 02:43:41;;;;;;;0.85;0.63;;;;;;;;;;10375877;28;20030;-60
2023/10/16 02:48:44;;;;;;;2.90;0.82;;;;;;;;;;10374686;28;20029;-60
2023/10/16 02:53:49;;;;;;;0.60;0.60;;;;;;;;;;10374307;28;20052;-61
2023/10/16 02:58:55;;;;;;;1.85;0.57;;;;;;;;;;10374905;28;20033;-60
2023/10/16 03:03:58;;;;;;;0.80;0.60;;;;;;;;;;10374191;28;20026;-61
2023/10/16 03:09:25;;;;;;;0.50;0.50;;;;;;;;;;10374835;28;20041;-60
2023/10/16 03:14:22;;;;;;;0.45;0.40;;;;;;;;;;10374093;28;20060;-62
2023/10/16 03:19:23;;;;;;;0.60;0.60;;;;;;;;;;10375221;28;20076;-59
2023/10/16 03:24:26;;;;;;;4.82;0.90;;;;;;;;;;10373859;28;20034;-59
2023/10/16 03:29:29;;;;;;;0.68;0.60;;;;;;;;;;10373702;28;20084;-58
2023/10/16 03:34:31;;;;;;;0.50;0.50;;;;;;;;;;10373589;28;20469;-60
2023/10/16 03:39:32;;;;;;;0.60;0.60;;;;;;;;;;10378593;28;20022;-58
2023/10/16 03:44:36;;;;;;;0.50;0.50;;;;;;;;;;10381435;28;20028;-60
2023/10/16 03:49:38;;;;;;;0.60;0.60;;;;;;;;;;10381051;28;20033;-59
2023/10/16 03:54:41;;;;;;;2.33;0.70;;;;;;;;;;10380857;28;20057;-60
2023/10/16 03:59:43;;;;;;;0.50;0.50;;;;;;;;;;10381203;28;20049;-60
2023/10/16 04:04:46;;;;;;;0.57;0.57;;;;;;;;;;10380451;28;20034;-59
2023/10/16 04:09:52;;;;;;;0.50;0.50;;;;;;;;;;10380916;28;20026;-59
2023/10/16 04:15:04;;;;;;;0.60;0.60;;;;;;;;;;10380021;28;20136;-60
2023/10/16 04:20:55;;;;;;;0.50;0.50;;;;;;;;;;10379788;28;20117;-60
2023/10/16 04:25:40;;;;;;;0.50;0.50;;;;;;;;;;10362595;28;20041;-59
2023/10/16 04:30:47;;;;;;;1.50;0.60;;;;;;;;;;10379426;28;20141;-60
2023/10/16 04:46:20;;;;;;;2.40;0.50;;;;;;;;;;10379705;28;20057;-59
2023/10/16 04:51:23;;;;;;;0.77;0.50;;;;;;;;;;10378097;28;20041;-59
2023/10/16 04:56:57;;;;;;;0.40;0.40;;;;;;;;;;10378384;28;20044;-60
2023/10/16 05:02:10;;;;;;;0.52;0.45;;;;;;;;;;10378186;28;20038;-59
2023/10/16 05:07:17;;;;;;;0.50;0.50;;;;;;;;;;10378176;28;20053;-63
2023/10/16 06:16:21;;;;;;;6.20;0.77;;;;;;;;;;10369151;28;20041;-62
2023/10/16 06:21:22;;;;;;;0.80;0.65;;;;;;;;;;10369270;28;20393;-59
2023/10/16 06:26:27;;;;;;;0.82;0.70;;;;;;;;;;10368974;28;20100;-63
2023/10/16 06:31:27;;;;;;;1.20;0.60;;;;;;;;;;10368917;28;20034;-61
2023/10/16 06:36:28;;;;;;;2.92;0.73;;;;;;;;;;10368234;28;20468;-65
2023/10/16 06:41:29;;;;;;;13.68;2.15;;;;;;;;;;10368128;28;20038;-64
2023/10/16 06:46:31;;;;;;;17.60;2.33;;;;;;;;;;10366814;28;20025;-60
2023/10/16 06:51:32;;;;;;;20.02;2.47;;;;;;;;;;10368232;28;20026;-65
2023/10/16 06:56:34;;;;;;;29.00;2.17;;;;;;;;;;10367711;28;20449;-66
2023/10/16 07:01:35;;;;;;;12.50;1.70;;;;;;;;;;10363256;28;20073;-60
2023/10/16 07:06:36;;;;;;;6.78;1.70;;;;;;;;;;10342421;28;20029;-61
2023/10/16 07:11:42;;;;;;;8.13;2.22;;;;;;;;;;10364894;28;20493;-61
2023/10/16 07:16:43;;;;;;;14.88;2.75;;;;;;;;;;10374906;28;20057;-61
2023/10/16 07:21:48;;;;;;;10.68;1.77;;;;;;;;;;10375335;28;20034;-65
2023/10/16 07:26:50;;;;;;;13.02;2.28;;;;;;;;;;10375698;28;20033;-64
2023/10/16 07:31:54;;;;;;;17.02;2.72;;;;;;;;;;10370599;28;20022;-62
2023/10/16 07:36:55;;;;;;;7.20;2.17;;;;;;;;;;10375247;28;20026;-63
2023/10/16 07:41:55;;;;;;;18.33;2.15;;;;;;;;;;10374470;28;20038;-66
2023/10/16 07:46:58;;;;;;;11.90;1.80;;;;;;;;;;10374172;28;20030;-65
2023/10/16 07:52:00;;;;;;;10.50;1.90;;;;;;;;;;10374331;28;20201;-65
2023/10/16 07:57:03;;;;;;;11.13;1.60;;;;;;;;;;10373670;28;20408;-66
2023/10/16 08:02:08;;;;;;;11.00;2.90;;;;;;;;;;10373929;28;20026;-67
2023/10/16 08:07:16;;;;;;;10.68;2.20;;;;;;;;;;10373974;28;20273;-66
2023/10/16 08:12:20;;;;;;;8.77;2.00;;;;;;;;;;10374029;28;20050;-66
2023/10/16 08:17:23;;;;;;;15.00;1.98;;;;;;;;;;10373177;28;20485;-66
2023/10/16 08:22:25;;;;;;;7.93;1.73;;;;;;;;;;10372416;28;20288;-67
2023/10/16 08:37:56;;;;;;;9.45;1.75;;;;;;;;;;10372051;28;20029;-67
2023/10/16 08:43:00;;;;;;;6.03;1.42;;;;;;;;;;10372168;28;20026;-64
2023/10/16 08:48:05;;;;;;;14.88;1.52;;;;;;;;;;10355269;28;20068;-65
2023/10/16 08:53:30;;;;;;;18.55;2.08;;;;;;;;;;10372089;28;20037;-66
2023/10/16 08:58:43;;;;;;;6.15;1.20;;;;;;;;;;10371168;28;20060;-65
2023/10/16 09:03:54;;;;;;;10.00;1.70;;;;;;;;;;10371195;28;20481;-66
2023/10/16 09:08:55;;;;;;;6.55;1.48;;;;;;;;;;10371771;28;20033;-65
2023/10/16 09:13:59;;;;;;;6.13;1.70;;;;;;;;;;10369920;28;20141;-68
2023/10/16 09:19:02;;;;;;;8.93;1.58;;;;;;;;;;10354501;28;20050;-66
2023/10/16 09:24:05;;;;;;;9.48;2.55;;;;;;;;;;10370519;28;20064;-62
2023/10/16 09:29:13;;;;;;;8.23;1.60;;;;;;;;;;10369557;28;20037;-60
2023/10/16 09:34:17;;;;;;;;;;;;;;;;;;10370636;28;20041;-64
2023/10/16 09:39:30;;;;;;;4.53;1.33;;;;;;;;;;10370357;28;19919;-66
2023/10/16 09:44:38;;;;;;;9.25;1.55;;;;;;;;;;10369969;28;20408;-61
2023/10/16 09:49:39;;;;;;;5.28;1.75;;;;;;;;;;10369563;28;20060;-61
2023/10/16 09:54:40;;;;;;;9.35;1.50;;;;;;;;;;10352140;28;20049;-64
2023/10/16 09:59:41;;;;;;;10.93;2.03;;;;;;;;;;10369748;28;20153;-58
2023/10/16 10:04:59;;;;;;;3.88;1.25;;;;;;;;;;10368681;28;20083;-59
2023/10/16 10:10:39;;;;;;;5.85;1.30;;;;;;;;;;10354117;28;20029;-59
2023/10/16 10:15:29;;;;;;;5.15;1.35;;;;;;;;;;10352688;28;20111;-63
2023/10/16 10:20:39;;;;;;;3.90;1.35;;;;;;;;;;10366675;28;20025;-60
2023/10/16 10:25:40;;;;;;;2.95;1.48;;;;;;;;;;10364789;28;20026;-59
2023/10/16 10:30:44;;;;;;;4.10;1.30;;;;;;;;;;10365733;28;20456;-59
2023/10/16 10:35:47;;;;;;;5.65;1.50;;;;;;;;;;10364328;28;20538;-59
2023/10/16 10:41:08;;;;;;;5.15;1.50;;;;;;;;;;10367160;28;20021;-63
2023/10/16 10:46:11;;;;;;;5.10;1.40;;;;;;;;;;10365053;28;20137;-62
2023/10/16 10:51:13;;;;;;;5.55;1.42;;;;;;;;;;10367417;28;20054;-61
2023/10/16 10:56:14;;;;;;;3.08;1.50;;;;;;;;;;10367958;28;20041;-59
2023/10/16 11:01:26;;;;;;;2.40;1.23;;;;;;;;;;10367710;28;20491;-59
2023/10/16 11:06:39;;;;;;;7.88;1.35;;;;;;;;;;10367852;28;20033;-62
2023/10/16 11:11:40;;;;;;;1.98;1.13;;;;;;;;;;10367004;28;20053;-62
2023/10/16 11:16:48;;;;;;;2.35;1.10;;;;;;;;;;10367505;28;20030;-62
2023/10/16 11:21:49;;;;;;;4.07;1.20;;;;;;;;;;10367712;28;20041;-60
2023/10/16 11:26:51;;;;;;;2.67;1.30;;;;;;;;;;10367113;28;20057;-60
2023/10/16 11:31:52;;;;;;;3.30;1.45;;;;;;;;;;10366753;28;20034;-59
2023/10/16 11:36:54;;;;;;;3.03;1.30;;;;;;;;;;10363319;28;20532;-60
2023/10/16 11:41:54;;;;;;;4.53;1.30;;;;;;;;;;10364084;28;20109;-67
2023/10/16 11:46:55;;;;;;;3.08;1.40;;;;;;;;;;10366769;28;20381;-58
2023/10/16 11:57:31;;;;;;;6.18;1.08;;;;;;;;;;10357109;28;20038;-59
2023/10/16 12:02:32;;;;;;;2.42;1.23;;;;;;;;;;10373786;28;20030;-59
2023/10/16 12:07:33;;;;;;;2.92;1.25;;;;;;;;;;10373505;28;20029;-60
2023/10/16 12:12:34;;;;;;;1.83;1.10;;;;;;;;;;10355676;28;20038;-59
2023/10/16 12:17:35;;;;;;;2.22;1.30;;;;;;;;;;10373838;28;20026;-58
2023/10/16 12:22:39;;;;;;;2.45;1.02;;;;;;;;;;10373116;28;20408;-58
2023/10/16 12:27:40;;;;;;;2.72;0.95;;;;;;;;;;10373467;28;20033;-63
2023/10/16 12:32:41;;;;;;;2.90;1.05;;;;;;;;;;10372798;28;20117;-61
2023/10/16 12:37:42;;;;;;;4.55;1.33;;;;;;;;;;10372410;28;20339;-61
2023/10/16 12:42:43;;;;;;;2.88;1.30;;;;;;;;;;10372214;28;20026;-65
2023/10/16 12:47:43;;;;;;;4.72;1.42;;;;;;;;;;10372032;28;20034;-60
2023/10/16 12:52:44;;;;;;;4.15;1.38;;;;;;;;;;10368151;28;20108;-60
2023/10/16 12:57:48;;;;;;;3.75;1.45;;;;;;;;;;10370973;28;20570;-64
2023/10/16 13:02:55;;;;;;;1.38;1.00;;;;;;;;;;10371738;28;20266;-59
2023/10/16 13:07:56;;;;;;;4.32;1.42;;;;;;;;;;10371570;28;20050;-66
2023/10/16 13:12:57;;;;;;;4.43;1.30;;;;;;;;;;10370784;28;20076;-65
2023/10/16 13:18:00;;;;;;;2.47;1.30;;;;;;;;;;10371171;28;20511;-65
2023/10/16 13:23:05;;;;;;;4.82;1.48;;;;;;;;;;10366636;28;20481;-57
2023/10/16 13:28:07;;;;;;;2.58;1.20;;;;;;;;;;10370812;28;20034;-61
2023/10/16 13:33:09;;;;;;;6.00;1.48;;;;;;;;;;10370308;28;20038;-65
2023/10/16 13:38:09;;;;;;;1.83;1.30;;;;;;;;;;10369958;28;20021;-58
2023/10/16 13:43:10;;;;;;;2.67;1.00;;;;;;;;;;10370190;28;20026;-58
2023/10/16 13:48:11;;;;;;;3.65;1.40;;;;;;;;;;10369311;28;20030;-57
2023/10/16 13:53:11;;;;;;;2.95;1.13;;;;;;;;;;10369907;28;20022;-58
2023/10/16 13:58:12;;;;;;;6.03;1.52;;;;;;;;;;10369570;28;20030;-58
2023/10/16 14:08:26;;;;;;;9.90;1.63;;;;;;;;;;10368176;28;20025;-60
2023/10/16 14:13:32;;;;;;;2.45;1.33;;;;;;;;;;10364295;28;20049;-57
2023/10/16 14:18:32;;;;;;;9.15;1.58;;;;;;;;;;10368510;28;20493;-61
2023/10/16 14:23:33;;;;;;;5.88;1.58;;;;;;;;;;10367303;28;20022;-67
2023/10/16 14:28:34;;;;;;;3.83;1.30;;;;;;;;;;10368577;28;20026;-58
2023/10/16 14:33:36;;;;;;;5.32;1.38;;;;;;;;;;10367987;28;20018;-58
2023/10/16 14:38:37;;;;;;;4.25;1.27;;;;;;;;;;10365811;28;20029;-58
2023/10/16 14:43:38;;;;;;;1.30;1.15;;;;;;;;;;10367467;28;20025;-65
2023/10/16 14:48:43;;;;;;;2.00;1.17;;;;;;;;;;10367939;28;20045;-65
2023/10/16 14:53:46;;;;;;;5.20;1.58;;;;;;;;;;10367006;28;20033;-66
2023/10/16 14:58:49;;;;;;;1.35;1.10;;;;;;;;;;10367309;28;20456;-64
2023/10/16 15:03:56;;;;;;;2.22;1.15;;;;;;;;;;10362416;28;20041;-65
2023/10/16 15:08:57;;;;;;;2.33;1.40;;;;;;;;;;10366364;28;20461;-64
2023/10/16 15:14:01;;;;;;;2.22;1.25;;;;;;;;;;10366133;28;20053;-67
2023/10/16 15:19:07;;;;;;;2.78;1.10;;;;;;;;;;10366937;28;20117;-64
2023/10/16 15:24:11;;;;;;;3.38;1.10;;;;;;;;;;10366390;28;20518;-67
2023/10/16 15:29:14;;;;;;;3.28;1.30;;;;;;;;;;10366812;28;20018;-66
2023/10/16 15:34:14;;;;;;;3.05;1.10;;;;;;;;;;10371406;28;20034;-67
2023/10/16 15:39:15;;;;;;;2.75;1.50;;;;;;;;;;10374080;28;20553;-66
2023/10/16 15:44:19;;;;;;;1.83;1.13;;;;;;;;;;10375001;28;20034;-60
2023/10/16 15:49:20;;;;;;;2.55;1.05;;;;;;;;;;10369918;28;20041;-63
2023/10/16 15:54:20;;;;;;;7.53;1.40;;;;;;;;;;10365730;28;20041;-59
2023/10/16 15:59:21;;;;;;;3.50;1.45;;;;;;;;;;10369623;28;20037;-59
2023/10/16 16:04:22;;;;;;;1.73;0.90;;;;;;;;;;10373081;28;20080;-61
2023/10/16 16:09:25;;;;;;;5.22;1.35;;;;;;;;;;10373460;28;20029;-60
2023/10/16 16:14:25;;;;;;;7.53;1.10;;;;;;;;;;10373177;28;20261;-59
2023/10/16 16:19:27;;;;;;;7.45;1.23;;;;;;;;;;10373117;28;20163;-60
2023/10/16 16:24:28;;;;;;;2.95;1.05;;;;;;;;;;10372889;28;20033;-63
2023/10/16 16:29:29;;;;;;;3.55;1.30;;;;;;;;;;10372617;28;20481;-58
2023/10/16 16:34:29;;;;;;;3.22;1.48;;;;;;;;;;10371142;28;20041;-60
2023/10/16 16:39:32;;;;;;;2.28;1.35;;;;;;;;;;10372491;28;20030;-59
2023/10/16 16:44:33;;;;;;;3.70;1.50;;;;;;;;;;10371373;28;20026;-62
2023/10/16 16:49:33;;;;;;;1.75;0.88;;;;;;;;;;10371831;28;20021;-63
2023/10/16 16:54:34;;;;;;;3.72;1.30;;;;;;;;;;10372288;28;20026;-59
2023/10/16 16:59:35;;;;;;;4.00;1.20;;;;;;;;;;10371145;28;20429;-61
2023/10/16 17:04:36;;;;;;;7.68;1.00;;;;;;;;;;10371888;28;20033;-64
2023/10/16 17:09:37;;;;;;;9.48;1.30;;;;;;;;;;10372185;28;20108;-63
2023/10/16 17:14:38;;;;;;;6.10;1.00;;;;;;;;;;10370887;28;20046;-64
2023/10/16 17:19:39;;;;;;;2.72;1.15;;;;;;;;;;11238103;22;20079;-66
2023/10/16 17:24:39;;;;;;;8.48;1.08;;;;;;;;;;10460497;28;20025;-63
2023/10/16 17:29:40;;;;;;;7.28;1.55;;;;;;;;;;10460899;28;20415;-64
2023/10/16 17:34:40;;;;;;;1.63;1.17;;;;;;;;;;10443760;28;20353;-64
2023/10/16 17:39:45;;;;;;;2.03;1.15;;;;;;;;;;10444131;28;20079;-64
2023/10/16 17:44:46;;;;;;;4.78;1.15;;;;;;;;;;10439372;28;20414;-65
2023/10/16 17:49:47;;;;;;;3.38;1.20;;;;;;;;;;10440924;28;20138;-64
2023/10/16 17:54:52;;;;;;;2.13;1.00;;;;;;;;;;10440369;28;20148;-65
2023/10/16 17:59:54;;;;;;;2.13;1.52;;;;;;;;;;10434003;28;20087;-59
2023/10/16 18:04:55;;;;;;;4.63;1.30;;;;;;;;;;10425027;28;20488;-64
2023/10/16 18:09:56;;;;;;;2.47;1.13;;;;;;;;;;10424365;28;20068;-65
2023/10/16 18:14:57;;;;;;;3.45;1.48;;;;;;;;;;10430785;28;20079;-65
2023/10/16 18:19:57;;;;;;;1.85;1.42;;;;;;;;;;10432295;28;20052;-65
2023/10/16 18:24:58;;;;;;;3.42;1.55;;;;;;;;;;10417215;28;20025;-64
2023/10/16 18:29:59;;;;;;;2.53;1.35;;;;;;;;;;10412960;28;20028;-65
2023/10/16 18:35:00;;;;;;;3.35;1.50;;;;;;;;;;10414523;28;20056;-65
2023/10/16 18:40:00;;;;;;;6.15;1.83;;;;;;;;;;10415366;28;22463;-65
2023/10/16 18:45:02;;;;;;;2.30;1.35;;;;;;;;;;10415170;28;20476;-65
2023/10/16 18:50:07;;;;;;;2.97;1.58;;;;;;;;;;10423845;28;20440;-65
2023/10/16 18:55:08;;;;;;;5.07;2.15;;;;;;;;;;10421710;28;20096;-63
2023/10/16 19:00:09;;;;;;;6.30;1.95;;;;;;;;;;10418241;28;20349;-63
2023/10/16 19:05:11;;;;;;;21.60;2.65;;;;;;;;;;10424192;28;20021;-65
2023/10/16 19:10:12;;;;;;;3.28;1.88;;;;;;;;;;10418711;28;20430;-63
2023/10/16 19:15:13;;;;;;;2.00;1.40;;;;;;;;;;10426825;28;20036;-65
2023/10/16 19:20:13;;;;;;;7.03;2.00;;;;;;;;;;10418225;28;20049;-65
2023/10/16 19:25:14;;;;;;;6.38;2.10;;;;;;;;;;10415008;28;20089;-63
2023/10/16 19:30:16;;;;;;;9.23;2.17;;;;;;;;;;10429264;28;20033;-61
2023/10/16 19:35:16;;;;;;;7.50;2.38;;;;;;;;;;10428420;28;20044;-61
2023/10/16 19:40:18;;;;;;;5.65;2.10;;;;;;;;;;10435943;28;20079;-61
2023/10/16 19:45:20;;;;;;;5.57;1.98;;;;;;;;;;10428167;28;20073;-62
2023/10/16 19:50:20;;;;;;;7.75;2.03;;;;;;;;;;10424092;28;20075;-62
2023/10/16 19:55:22;;;;;;;5.65;2.10;;;;;;;;;;10416289;28;20099;-63
2023/10/16 20:00:28;;;;;;;9.23;2.28;;;;;;;;;;10422347;28;20471;-62
2023/10/16 20:05:29;;;;;;;10.40;2.33;;;;;;;;;;10417638;28;20032;-62
2023/10/16 20:10:33;;;;;;;6.63;2.30;;;;;;;;;;10425757;28;20487;-61
2023/10/16 20:15:37;;;;;;;8.93;2.22;;;;;;;;;;10421925;28;20032;-62
2023/10/16 20:20:42;;;;;;;4.45;2.22;;;;;;;;;;10445515;28;20128;-62
2023/10/16 20:25:49;;;;;;;5.97;2.35;;;;;;;;;;10443746;28;20568;-62
2023/10/16 20:30:50;;;;;;;6.00;2.55;;;;;;;;;;10436850;28;20021;-64
2023/10/16 20:35:51;;;;;;;7.65;2.33;;;;;;;;;;10443075;28;20032;-61
2023/10/16 20:40:51;;;;;;;11.48;2.78;;;;;;;;;;10451902;28;20048;-61
2023/10/16 20:45:52;;;;;;;14.60;2.88;;;;;;;;;;10425062;28;20037;-62
2023/10/16 20:50:54;;;;;;;18.05;3.10;;;;;;;;;;10422056;28;20174;-63
2023/10/16 20:55:54;;;;;;;9.60;2.70;;;;;;;;;;10426439;28;20025;-62
2023/10/16 21:00:55;;;;;;;16.20;2.90;;;;;;;;;;10440213;28;20060;-60
2023/10/16 21:05:55;;;;;;;8.55;2.63;;;;;;;;;;10431713;28;20447;-60
2023/10/16 21:10:58;;;;;;;8.10;2.72;;;;;;;;;;10442795;28;20029;-60
2023/10/16 21:15:58;;;;;;;9.75;2.50;;;;;;;;;;10443205;28;20091;-60
2023/10/16 21:21:01;;;;;;;12.75;2.47;;;;;;;;;;10445623;28;20067;-61
2023/10/16 21:26:11;;;;;;;6.93;3.05;;;;;;;;;;10433516;28;20145;-63
2023/10/16 21:31:11;;;;;;;12.68;2.28;;;;;;;;;;10438837;28;20044;-57
2023/10/16 21:36:12;;;;;;;11.82;2.75;;;;;;;;;;10445122;28;20044;-58
2023/10/16 21:41:13;;;;;;;5.15;2.30;;;;;;;;;;10448646;28;20021;-58
2023/10/16 21:46:13;;;;;;;10.30;2.38;;;;;;;;;;10440497;28;20033;-61
2023/10/16 21:51:14;;;;;;;8.00;2.42;;;;;;;;;;10418423;28;20027;-58
2023/10/16 21:56:15;;;;;;;6.60;2.42;;;;;;;;;;10440074;28;20036;-60
2023/10/16 22:01:16;;;;;;;8.30;2.50;;;;;;;;;;10440769;28;20508;-60
2023/10/16 22:06:17;;;;;;;9.07;2.92;;;;;;;;;;10434579;28;20059;-59
2023/10/16 22:11:17;;;;;;;5.20;2.42;;;;;;;;;;10438555;28;20033;-62
2023/10/16 22:16:18;;;;;;;6.78;2.80;;;;;;;;;;10425974;28;20021;-60
2023/10/16 22:21:20;;;;;;;3.10;2.20;;;;;;;;;;10434070;28;20518;-59
2023/10/16 22:26:20;;;;;;;3.63;2.50;;;;;;;;;;10445551;28;20021;-60
2023/10/16 22:31:21;;;;;;;3.47;2.22;;;;;;;;;;10425360;28;20035;-59
2023/10/16 22:36:23;;;;;;;13.95;2.50;;;;;;;;;;10433826;28;20033;-60
2023/10/16 22:41:25;;;;;;;4.30;2.50;;;;;;;;;;10444112;28;20048;-61
2023/10/16 22:46:26;;;;;;;4.63;2.28;;;;;;;;;;10433428;28;20343;-60
2023/10/16 22:51:27;;;;;;;5.22;2.15;;;;;;;;;;10428694;28;20025;-61
2023/10/16 22:56:27;;;;;;;6.90;2.65;;;;;;;;;;10445208;28;20021;-56
2023/10/16 23:01:31;;;;;;;6.50;2.17;;;;;;;;;;10438309;28;20394;-59
2023/10/16 23:06:32;;;;;;;5.38;2.40;;;;;;;;;;10438844;28;20033;-64
2023/10/16 23:11:36;;;;;;;3.15;2.13;;;;;;;;;;10417817;28;20021;-59
2023/10/16 23:16:43;;;;;;;3.65;2.25;;;;;;;;;;10416124;28;20025;-66
2023/10/16 23:21:43;;;;;;;3.30;2.30;;;;;;;;;;10412015;28;20036;-61
2023/10/16 23:26:44;;;;;;;4.80;2.22;;;;;;;;;;10412571;28;20076;-59
2023/10/16 23:31:47;;;;;;;9.05;2.28;;;;;;;;;;10428632;28;20354;-61
2023/10/16 23:36:56;;;;;;;4.93;2.20;;;;;;;;;;10442207;28;20029;-62
2023/10/16 23:42:16;;;;;;;3.53;2.08;;;;;;;;;;10437029;28;20121;-64
2023/10/16 23:47:16;;;;;;;3.88;1.90;;;;;;;;;;10419077;28;20504;-62
2023/10/16 23:52:22;;;;;;;2.80;2.00;;;;;;;;;;10445260;28;20025;-63
2023/10/16 23:57:27;;;;;;;2.55;1.98;;;;;;;;;;10439730;28;20052;-65
